createdAt,value
2017-12-22T00:01:04.151Z,16.27
2017-12-22T00:03:32.619Z,16.62
2017-12-22T00:06:01.143Z,20.50
2017-12-22T00:08:28.849Z,15.95
2017-12-22T00:10:56.544Z,13.30
2017-12-22T00:13:24.295Z,15.38
2017-12-22T00:15:52.025Z,16.10
2017-12-22T00:18:19.713Z,13.73
2017-12-22T00:20:48.244Z,12.20
2017-12-22T00:23:15.961Z,11.88
2017-12-22T00:25:43.706Z,12.00
2017-12-22T00:28:12.214Z,11.15
2017-12-22T00:30:39.937Z,11.55
2017-12-22T00:33:07.642Z,11.48
2017-12-22T00:35:35.410Z,13.10
2017-12-22T00:38:03.113Z,14.13
2017-12-22T00:40:30.838Z,13.55
2017-12-22T00:42:58.592Z,9.55
2017-12-22T00:45:26.302Z,12.32
2017-12-22T00:47:54.786Z,10.77
2017-12-22T00:50:23.311Z,16.70
2017-12-22T00:52:51.009Z,10.60
2017-12-22T00:55:18.705Z,17.35
2017-12-22T00:57:46.463Z,11.50
2017-12-22T01:00:15.066Z,14.30
2017-12-22T01:02:42.762Z,13.23
2017-12-22T01:05:10.514Z,11.32
2017-12-22T01:07:38.206Z,16.27
2017-12-22T01:10:05.919Z,17.37
2017-12-22T01:12:33.666Z,18.33
2017-12-22T01:15:01.369Z,18.30
2017-12-22T01:17:34.727Z,17.20
2017-12-22T01:20:02.422Z,17.67
2017-12-22T01:22:30.115Z,16.15
2017-12-22T01:24:58.628Z,17.20
2017-12-22T01:27:26.323Z,18.40
2017-12-22T01:29:54.025Z,16.58
2017-12-22T01:32:21.778Z,17.30
2017-12-22T01:34:50.238Z,21.48
2017-12-22T01:37:17.946Z,17.02
2017-12-22T01:39:45.694Z,17.85
2017-12-22T01:42:13.388Z,20.75
2017-12-22T01:44:41.094Z,20.33
2017-12-22T01:47:08.850Z,20.95
2017-12-22T01:49:37.311Z,19.12
2017-12-22T01:52:05.006Z,18.90
2017-12-22T01:54:32.755Z,17.42
2017-12-22T01:57:01.232Z,15.73
2017-12-22T01:59:29.695Z,14.50
2017-12-22T02:01:58.226Z,17.08
2017-12-22T02:04:25.935Z,14.68
2017-12-22T02:06:53.627Z,13.27
2017-12-22T02:09:21.376Z,14.10
2017-12-22T02:11:49.850Z,13.45
2017-12-22T02:14:18.313Z,16.37
2017-12-22T02:16:46.094Z,12.32
2017-12-22T02:19:13.795Z,18.15
2017-12-22T02:21:41.495Z,13.98
2017-12-22T02:24:09.256Z,14.30
2017-12-22T02:26:36.981Z,14.32
2017-12-22T02:29:04.690Z,15.07
2017-12-22T02:31:33.210Z,14.00
2017-12-22T02:34:01.678Z,14.23
2017-12-22T02:36:29.375Z,14.82
2017-12-22T02:38:57.142Z,12.93
2017-12-22T02:41:24.838Z,13.57
2017-12-22T02:43:53.298Z,14.07
2017-12-22T02:46:21.056Z,15.40
2017-12-22T02:48:48.781Z,13.60
2017-12-22T02:51:16.471Z,14.70
2017-12-22T02:53:44.245Z,17.23
2017-12-22T02:56:12.717Z,16.48
2017-12-22T02:58:40.409Z,16.58
2017-12-22T03:01:08.218Z,14.38
2017-12-22T03:03:35.913Z,17.20
2017-12-22T03:06:04.399Z,20.37
2017-12-22T03:08:32.925Z,16.30
2017-12-22T03:11:00.634Z,18.45
2017-12-22T03:13:29.102Z,19.10
2017-12-22T03:15:58.075Z,25.15
2017-12-22T03:18:25.765Z,24.95
2017-12-22T03:20:54.232Z,23.87
2017-12-22T03:23:22.755Z,21.58
2017-12-22T03:25:50.447Z,22.92
2017-12-22T03:28:18.146Z,23.55
2017-12-22T03:30:46.658Z,20.08
2017-12-22T03:33:14.350Z,24.48
2017-12-22T03:35:42.040Z,22.90
2017-12-22T03:38:10.746Z,20.35
2017-12-22T03:40:38.459Z,20.60
2017-12-22T03:43:06.149Z,20.45
2017-12-22T03:45:34.666Z,24.42
2017-12-22T03:48:02.375Z,20.00
2017-12-22T03:50:30.830Z,25.00
2017-12-22T03:52:58.578Z,22.25
2017-12-22T03:55:27.470Z,25.35
2017-12-22T03:57:55.155Z,25.00
2017-12-22T04:00:22.903Z,23.50
2017-12-22T04:02:50.593Z,22.98
2017-12-22T04:05:19.062Z,24.20
2017-12-22T04:07:47.577Z,24.95
2017-12-22T04:10:15.270Z,23.15
2017-12-22T04:12:42.978Z,25.10
2017-12-22T04:15:10.743Z,23.08
2017-12-22T04:17:39.205Z,23.23
2017-12-22T04:20:07.668Z,17.62
2017-12-22T04:22:35.417Z,23.60
2017-12-22T04:25:03.114Z,20.12
2017-12-22T04:27:30.811Z,19.33
2017-12-22T04:29:58.553Z,20.92
2017-12-22T04:32:26.247Z,19.40
2017-12-22T04:34:53.955Z,16.40
2017-12-22T04:37:22.465Z,19.30
2017-12-22T04:39:50.153Z,19.33
2017-12-22T04:42:17.848Z,25.27
2017-12-22T04:44:46.362Z,20.55
2017-12-22T04:47:14.057Z,16.40
2017-12-22T04:49:41.753Z,15.52
2017-12-22T04:52:10.276Z,14.45
2017-12-22T04:54:38.068Z,14.63
2017-12-22T04:57:05.765Z,19.20
2017-12-22T04:59:33.525Z,18.73
2017-12-22T05:02:01.225Z,20.02
2017-12-22T05:04:28.927Z,19.40
2017-12-22T05:06:57.443Z,17.30
2017-12-22T05:09:25.140Z,17.65
2017-12-22T05:11:52.843Z,18.17
2017-12-22T05:14:20.594Z,19.15
2017-12-22T05:16:49.063Z,18.92
2017-12-22T05:19:17.523Z,19.27
2017-12-22T05:21:45.282Z,21.25
2017-12-22T05:24:12.988Z,24.20
2017-12-22T05:26:40.681Z,18.70
2017-12-22T05:29:08.446Z,19.80
2017-12-22T05:31:36.156Z,19.60
2017-12-22T05:34:04.621Z,20.00
2017-12-22T05:36:32.370Z,23.33
2017-12-22T05:39:00.095Z,19.15
2017-12-22T05:41:27.785Z,19.90
2017-12-22T05:43:55.538Z,20.50
2017-12-22T05:46:23.241Z,23.38
2017-12-22T05:48:51.698Z,26.37
2017-12-22T05:51:19.457Z,24.87
2017-12-22T05:53:47.161Z,24.23
2017-12-22T05:56:14.864Z,22.85
2017-12-22T05:58:42.610Z,21.20
2017-12-22T06:01:10.331Z,28.62
2017-12-22T06:03:38.035Z,29.70
2017-12-22T06:06:05.779Z,28.30
2017-12-22T06:08:33.476Z,27.02
2017-12-22T06:11:01.185Z,24.63
2017-12-22T06:13:28.930Z,24.17
2017-12-22T06:15:57.398Z,24.15
2017-12-22T06:18:25.857Z,25.48
2017-12-22T06:20:53.621Z,22.13
2017-12-22T06:23:21.313Z,31.08
2017-12-22T06:25:49.016Z,29.50
2017-12-22T06:28:16.761Z,30.80
2017-12-22T06:30:44.527Z,30.67
2017-12-22T06:33:12.254Z,28.23
2017-12-22T06:35:40.055Z,29.48
2017-12-22T06:38:07.780Z,30.30
2017-12-22T06:40:35.486Z,24.52
2017-12-22T06:43:03.241Z,29.80
2017-12-22T06:45:30.959Z,33.70
2017-12-22T06:47:58.653Z,29.27
2017-12-22T06:50:26.394Z,33.53
2017-12-22T06:52:54.093Z,29.08
2017-12-22T06:55:21.799Z,30.42
2017-12-22T06:57:50.315Z,27.90
2017-12-22T07:00:18.014Z,41.30
2017-12-22T07:02:45.713Z,32.13
2017-12-22T07:05:13.469Z,32.67
2017-12-22T07:07:41.170Z,32.47
2017-12-22T07:10:08.866Z,28.15
2017-12-22T07:12:37.404Z,38.03
2017-12-22T07:15:05.097Z,38.92
2017-12-22T07:17:32.794Z,35.83
2017-12-22T07:20:00.550Z,32.80
2017-12-22T07:22:28.270Z,33.67
2017-12-22T07:24:55.986Z,34.25
2017-12-22T07:27:23.747Z,36.72
2017-12-22T07:29:51.461Z,32.80
2017-12-22T07:32:19.157Z,32.45
2017-12-22T07:34:46.919Z,33.50
2017-12-22T07:37:14.685Z,33.88
2017-12-22T07:39:42.390Z,29.65
2017-12-22T07:42:10.145Z,29.23
2017-12-22T07:44:37.846Z,33.03
2017-12-22T07:47:06.310Z,38.72
2017-12-22T07:49:34.058Z,33.80
2017-12-22T07:52:01.769Z,26.52
2017-12-22T07:54:29.471Z,30.98
2017-12-22T07:56:57.223Z,25.50
2017-12-22T07:59:24.927Z,25.00
2017-12-22T08:01:52.622Z,27.55
2017-12-22T08:04:20.367Z,23.48
2017-12-22T08:06:48.070Z,23.05
2017-12-22T08:09:15.772Z,23.50
2017-12-22T08:11:44.295Z,26.17
2017-12-22T08:14:12.007Z,22.13
2017-12-22T08:16:40.477Z,23.52
2017-12-22T08:19:08.995Z,25.55
2017-12-22T08:21:36.701Z,20.67
2017-12-22T08:24:04.407Z,22.80
2017-12-22T08:26:32.174Z,27.25
2017-12-22T08:28:59.871Z,18.83
2017-12-22T08:31:27.587Z,28.85
2017-12-22T08:33:55.374Z,23.15
2017-12-22T08:36:23.079Z,27.90
2017-12-22T08:38:50.860Z,39.03
2017-12-22T08:41:19.555Z,22.05
2017-12-22T08:43:47.274Z,25.40
2017-12-22T08:46:14.971Z,24.25
2017-12-22T08:48:42.734Z,22.75
2017-12-22T08:51:10.452Z,25.90
2017-12-22T08:53:38.145Z,20.15
2017-12-22T08:56:06.658Z,18.75
2017-12-22T08:58:34.355Z,20.02
2017-12-22T09:01:02.055Z,19.60
2017-12-22T09:03:29.815Z,20.62
2017-12-22T09:05:57.573Z,21.33
2017-12-22T09:08:25.315Z,20.50
2017-12-22T09:10:53.838Z,20.70
2017-12-22T09:13:21.699Z,19.73
2017-12-22T09:15:49.411Z,22.62
2017-12-22T09:18:17.980Z,19.23
2017-12-22T09:20:45.697Z,17.50
2017-12-22T09:23:13.437Z,11.77
2017-12-22T09:25:41.982Z,16.52
2017-12-22T09:28:10.520Z,22.67
2017-12-22T09:30:38.228Z,14.32
2017-12-22T09:33:06.018Z,19.50
2017-12-22T09:35:33.724Z,15.02
2017-12-22T09:38:01.443Z,16.02
2017-12-22T09:40:39.856Z,17.80
2017-12-22T09:43:12.556Z,16.67
2017-12-22T09:45:40.424Z,14.27
2017-12-22T09:48:08.122Z,15.95
2017-12-22T09:50:35.821Z,15.43
2017-12-22T09:53:03.574Z,14.40
2017-12-22T09:55:31.280Z,15.55
2017-12-22T09:57:59.002Z,14.48
2017-12-22T10:00:26.746Z,14.55
2017-12-22T10:02:55.208Z,10.85
2017-12-22T10:05:22.901Z,17.87
2017-12-22T10:07:50.669Z,16.23
2017-12-22T10:10:22.015Z,13.62
2017-12-22T10:12:49.724Z,10.13
2017-12-22T10:15:17.481Z,13.73
2017-12-22T10:17:45.208Z,13.52
2017-12-22T10:20:12.919Z,11.12
2017-12-22T10:22:40.690Z,13.45
2017-12-22T10:25:09.147Z,11.05
2017-12-22T10:27:36.855Z,8.85
2017-12-22T10:30:04.614Z,11.88
2017-12-22T10:32:32.307Z,9.95
2017-12-22T10:35:00.000Z,11.12
2017-12-22T10:37:36.184Z,13.15
2017-12-22T10:40:13.731Z,11.93
2017-12-22T10:42:41.481Z,9.68
2017-12-22T10:45:09.172Z,11.80
2017-12-22T10:47:36.874Z,11.88
2017-12-22T10:50:04.615Z,9.95
2017-12-22T10:52:33.860Z,11.68
2017-12-22T10:55:01.561Z,15.93
2017-12-22T10:57:30.141Z,14.43
2017-12-22T10:59:58.634Z,16.25
2017-12-22T11:02:26.335Z,12.00
2017-12-22T11:04:54.091Z,15.90
2017-12-22T11:07:21.797Z,17.20
2017-12-22T11:09:49.489Z,15.63
2017-12-22T11:12:17.245Z,8.88
2017-12-22T11:14:44.947Z,14.05
2017-12-22T11:17:13.404Z,8.90
2017-12-22T11:19:41.153Z,12.30
2017-12-22T11:22:08.847Z,12.27
2017-12-22T11:24:36.537Z,9.25
2017-12-22T11:27:04.311Z,9.43
2017-12-22T11:29:32.761Z,8.73
2017-12-22T11:32:00.459Z,8.68
2017-12-22T11:34:28.970Z,11.20
2017-12-22T11:36:57.625Z,12.73
2017-12-22T11:39:25.318Z,8.88
2017-12-22T11:41:53.065Z,9.00
2017-12-22T11:44:20.767Z,12.52
2017-12-22T11:46:48.470Z,9.68
2017-12-22T11:49:16.213Z,12.68
2017-12-22T11:51:44.700Z,8.80
2017-12-22T11:54:13.153Z,9.82
2017-12-22T11:56:40.895Z,11.30
2017-12-22T11:59:08.582Z,11.57
2017-12-22T12:01:36.273Z,11.65
2017-12-22T12:04:04.046Z,11.85
2017-12-22T12:06:31.743Z,7.85
2017-12-22T12:08:59.436Z,9.77
2017-12-22T12:11:27.949Z,8.55
2017-12-22T12:13:55.643Z,6.28
2017-12-22T12:16:23.351Z,9.77
2017-12-22T12:18:51.143Z,8.15
2017-12-22T12:21:18.837Z,8.82
2017-12-22T12:23:46.537Z,18.33
2017-12-22T12:26:14.290Z,12.95
2017-12-22T12:28:41.994Z,12.45
2017-12-22T12:31:09.686Z,12.50
2017-12-22T12:33:38.212Z,10.32
2017-12-22T12:36:05.909Z,12.15
2017-12-22T12:38:33.608Z,10.32
2017-12-22T12:41:02.133Z,11.30
2017-12-22T12:43:29.825Z,10.48
2017-12-22T12:45:57.547Z,10.13
2017-12-22T12:48:25.305Z,10.18
2017-12-22T12:50:53.001Z,13.27
2017-12-22T12:53:20.695Z,9.88
2017-12-22T12:55:48.867Z,8.90
2017-12-22T12:58:16.579Z,10.77
2017-12-22T13:00:44.297Z,11.55
2017-12-22T13:03:12.055Z,18.95
2017-12-22T13:05:39.754Z,12.48
2017-12-22T13:08:07.466Z,16.15
2017-12-22T13:10:35.219Z,13.90
2017-12-22T13:13:03.690Z,10.30
2017-12-22T13:15:32.145Z,12.40
2017-12-22T13:18:04.403Z,12.15
2017-12-22T13:20:32.129Z,11.75
2017-12-22T13:23:00.679Z,14.40
2017-12-22T13:25:29.083Z,13.18
2017-12-22T13:27:56.838Z,14.48
2017-12-22T13:30:24.631Z,13.05
2017-12-22T13:32:53.167Z,11.95
2017-12-22T13:35:21.722Z,14.13
2017-12-22T13:37:50.219Z,11.80
2017-12-22T13:40:18.938Z,13.23
2017-12-22T13:42:46.977Z,15.60
2017-12-22T13:45:14.962Z,12.65
2017-12-22T13:47:42.713Z,14.57
2017-12-22T13:50:10.437Z,12.20
2017-12-22T13:52:38.159Z,11.82
2017-12-22T13:55:05.922Z,16.12
2017-12-22T13:57:41.760Z,21.62
2017-12-22T14:00:11.403Z,16.87
2017-12-22T14:02:39.226Z,14.52
2017-12-22T14:05:06.943Z,15.13
2017-12-22T14:07:34.779Z,16.85
2017-12-22T14:10:02.544Z,17.73
2017-12-22T14:12:30.246Z,24.33
2017-12-22T14:14:58.759Z,18.17
2017-12-22T14:17:26.457Z,20.95
2017-12-22T14:19:54.173Z,17.10
2017-12-22T14:22:21.922Z,18.67
2017-12-22T14:24:49.625Z,18.60
2017-12-22T14:27:17.347Z,19.58
2017-12-22T14:29:45.331Z,15.82
2017-12-22T14:32:13.044Z,17.25
2017-12-22T14:34:40.753Z,15.50
2017-12-22T14:37:08.502Z,13.65
2017-12-22T14:39:36.202Z,17.12
2017-12-22T14:42:03.900Z,16.42
2017-12-22T14:44:32.442Z,17.65
2017-12-22T14:47:00.229Z,15.20
2017-12-22T14:49:28.724Z,17.10
2017-12-22T14:51:57.285Z,16.17
2017-12-22T14:54:24.995Z,20.02
2017-12-22T14:56:52.706Z,16.23
2017-12-22T14:59:20.458Z,17.70
2017-12-22T15:01:48.161Z,20.98
2017-12-22T15:04:15.871Z,17.55
2017-12-22T15:06:43.650Z,14.45
2017-12-22T15:09:11.366Z,15.77
2017-12-22T15:11:39.074Z,16.90
2017-12-22T15:14:07.597Z,15.73
2017-12-22T15:16:35.306Z,18.00
2017-12-22T15:19:03.013Z,22.85
2017-12-22T15:21:30.805Z,20.62
2017-12-22T15:23:58.494Z,23.30
2017-12-22T15:26:26.191Z,18.25
2017-12-22T15:28:53.953Z,21.70
2017-12-22T15:31:21.654Z,18.92
2017-12-22T15:33:49.357Z,20.67
2017-12-22T15:36:17.111Z,15.85
2017-12-22T15:38:45.578Z,14.50
2017-12-22T15:41:14.071Z,14.82
2017-12-22T15:43:42.628Z,18.05
2017-12-22T15:46:10.337Z,13.45
2017-12-22T15:48:38.041Z,14.10
2017-12-22T15:51:05.810Z,12.68
2017-12-22T15:53:33.516Z,13.32
2017-12-22T15:56:01.228Z,17.67
2017-12-22T15:58:28.990Z,14.95
2017-12-22T16:00:56.838Z,14.90
2017-12-22T16:03:25.926Z,12.80
2017-12-22T16:05:53.694Z,5.05
2017-12-22T16:08:21.386Z,5.32
2017-12-22T16:10:49.070Z,4.80
2017-12-22T16:13:16.833Z,4.62
2017-12-22T16:15:44.579Z,3.80
2017-12-22T16:18:16.418Z,4.62
2017-12-22T16:20:44.137Z,4.35
2017-12-22T16:23:11.877Z,6.40
2017-12-22T16:25:39.682Z,7.43
2017-12-22T16:28:07.372Z,6.97
2017-12-22T16:30:35.821Z,4.32
2017-12-22T16:33:03.622Z,9.15
2017-12-22T16:35:32.074Z,8.55
2017-12-22T16:37:59.784Z,7.37
2017-12-22T16:40:27.601Z,7.87
2017-12-22T16:42:55.568Z,8.55
2017-12-22T16:45:23.263Z,8.52
2017-12-22T16:47:51.038Z,15.02
2017-12-22T16:50:18.751Z,10.00
2017-12-22T16:52:46.475Z,14.85
2017-12-22T16:55:15.008Z,12.18
2017-12-22T16:57:43.510Z,32.50
2017-12-22T17:00:11.242Z,35.22
2017-12-22T17:02:39.751Z,27.27
2017-12-22T17:05:07.444Z,22.87
2017-12-22T17:07:35.291Z,33.50
2017-12-22T17:10:03.042Z,24.27
2017-12-22T17:12:30.729Z,24.63
2017-12-22T17:14:58.418Z,40.42
2017-12-22T17:17:26.162Z,29.15
2017-12-22T17:19:53.846Z,20.65
2017-12-22T17:22:21.534Z,17.52
2017-12-22T17:24:49.283Z,26.52
2017-12-22T17:27:17.739Z,22.25
2017-12-22T17:29:45.435Z,24.08
2017-12-22T17:32:13.184Z,30.20
2017-12-22T17:34:41.637Z,21.25
2017-12-22T17:37:09.325Z,21.37
2017-12-22T17:39:37.861Z,23.90
2017-12-22T17:42:05.553Z,23.00
2017-12-22T17:44:34.014Z,22.85
2017-12-22T17:47:01.760Z,19.77
2017-12-22T17:49:29.456Z,19.42
2017-12-22T17:51:57.913Z,17.85
2017-12-22T17:54:25.658Z,18.85
2017-12-22T17:56:53.546Z,15.10
2017-12-22T17:59:22.072Z,18.10
2017-12-22T18:01:49.821Z,14.90
2017-12-22T18:04:17.518Z,20.23
2017-12-22T18:06:45.238Z,18.50
2017-12-22T18:09:13.020Z,20.55
2017-12-22T18:11:40.759Z,19.75
2017-12-22T18:14:08.445Z,20.08
2017-12-22T18:16:36.199Z,18.42
2017-12-22T18:19:03.894Z,17.80
2017-12-22T18:21:31.606Z,20.48
2017-12-22T18:23:59.498Z,25.17
2017-12-22T18:26:34.852Z,19.05
2017-12-22T18:29:02.615Z,18.10
2017-12-22T18:31:30.305Z,22.85
2017-12-22T18:33:58.782Z,19.27
2017-12-22T18:36:27.583Z,24.45
2017-12-22T18:38:55.398Z,25.70
2017-12-22T18:41:23.090Z,22.85
2017-12-22T18:43:52.171Z,22.55
2017-12-22T18:46:20.047Z,22.62
2017-12-22T18:48:47.771Z,22.15
2017-12-22T18:51:15.520Z,24.20
2017-12-22T18:53:43.212Z,25.35
2017-12-22T18:56:10.917Z,22.02
2017-12-22T18:58:38.683Z,20.65
2017-12-22T19:01:06.393Z,21.00
2017-12-22T19:03:34.091Z,19.25
2017-12-22T19:06:01.839Z,22.35
2017-12-22T19:08:30.299Z,25.73
2017-12-22T19:10:58.179Z,20.50
2017-12-22T19:13:26.686Z,21.83
2017-12-22T19:15:54.403Z,13.77
2017-12-22T19:18:22.143Z,18.30
2017-12-22T19:20:49.900Z,18.75
2017-12-22T19:23:17.591Z,17.23
2017-12-22T19:25:48.578Z,18.02
2017-12-22T19:28:16.322Z,17.67
2017-12-22T19:30:44.021Z,19.20
2017-12-22T19:33:11.716Z,16.40
2017-12-22T19:35:40.239Z,19.35
2017-12-22T19:38:07.931Z,14.68
2017-12-22T19:40:35.628Z,20.73
2017-12-22T19:43:04.313Z,17.42
2017-12-22T19:45:32.766Z,16.00
2017-12-22T19:48:00.458Z,18.42
2017-12-22T19:50:28.283Z,15.93
2017-12-22T19:52:57.119Z,15.32
2017-12-22T19:55:24.838Z,15.30
2017-12-22T19:57:52.610Z,14.80
2017-12-22T20:00:21.080Z,13.00
2017-12-22T20:02:48.779Z,11.63
2017-12-22T20:05:16.524Z,14.77
2017-12-22T20:07:44.970Z,13.10
2017-12-22T20:10:12.653Z,13.52
2017-12-22T20:12:40.405Z,12.37
2017-12-22T20:15:08.097Z,9.45
2017-12-22T20:17:35.783Z,14.63
2017-12-22T20:20:03.520Z,10.75
2017-12-22T20:22:31.210Z,15.55
2017-12-22T20:24:58.902Z,11.60
2017-12-22T20:27:27.431Z,11.05
2017-12-22T20:30:06.286Z,15.40
2017-12-22T20:32:39.326Z,14.32
2017-12-22T20:35:11.897Z,15.98
2017-12-22T20:37:39.643Z,12.10
2017-12-22T20:40:08.239Z,11.50
2017-12-22T20:42:35.938Z,14.48
2017-12-22T20:45:03.723Z,11.63
2017-12-22T20:47:31.416Z,15.27
2017-12-22T20:49:59.135Z,15.55
2017-12-22T20:52:26.879Z,12.57
2017-12-22T20:54:54.565Z,13.27
2017-12-22T20:57:22.264Z,17.35
2017-12-22T20:59:50.033Z,17.65
2017-12-22T21:02:18.905Z,16.40
2017-12-22T21:04:46.620Z,18.73
2017-12-22T21:07:14.397Z,22.05
2017-12-22T21:09:42.262Z,22.02
2017-12-22T21:12:10.763Z,17.70
2017-12-22T21:14:39.274Z,16.70
2017-12-22T21:17:07.033Z,14.23
2017-12-22T21:19:34.855Z,18.80
2017-12-22T21:22:03.405Z,18.10
2017-12-22T21:24:31.106Z,20.35
2017-12-22T21:26:59.567Z,17.73
2017-12-22T21:29:27.326Z,25.48
2017-12-22T21:31:55.031Z,20.05
2017-12-22T21:34:22.730Z,18.50
2017-12-22T21:36:51.523Z,20.85
2017-12-22T21:39:19.275Z,22.45
2017-12-22T21:41:46.978Z,14.02
2017-12-22T21:44:14.757Z,19.60
2017-12-22T21:46:43.282Z,15.10
2017-12-22T21:49:10.965Z,12.30
2017-12-22T21:51:39.501Z,16.25
2017-12-22T21:54:07.198Z,19.55
2017-12-22T21:56:35.734Z,15.20
2017-12-22T21:59:03.517Z,15.43
2017-12-22T22:01:31.223Z,19.42
2017-12-22T22:03:58.939Z,20.20
2017-12-22T22:06:26.678Z,11.15
2017-12-22T22:08:54.361Z,15.95
2017-12-22T22:11:22.055Z,16.73
2017-12-22T22:13:50.713Z,15.80
2017-12-22T22:16:18.422Z,17.52
2017-12-22T22:18:46.114Z,14.73
2017-12-22T22:21:13.871Z,15.02
2017-12-22T22:23:41.561Z,14.93
2017-12-22T22:26:09.260Z,12.50
2017-12-22T22:28:37.007Z,10.10
2017-12-22T22:31:04.703Z,13.50
2017-12-22T22:33:32.395Z,16.10
2017-12-22T22:36:00.143Z,9.55
2017-12-22T22:38:27.846Z,14.80
2017-12-22T22:40:56.306Z,15.77
2017-12-22T22:43:24.052Z,12.77
2017-12-22T22:45:51.742Z,12.77
2017-12-22T22:48:20.199Z,10.13
2017-12-22T22:50:47.941Z,10.43
2017-12-22T22:53:15.626Z,12.82
2017-12-22T22:55:43.334Z,34.65
2017-12-22T22:58:11.083Z,14.18
2017-12-22T23:00:38.771Z,15.75
2017-12-22T23:03:06.466Z,10.68
2017-12-22T23:05:34.212Z,9.25
2017-12-22T23:08:01.900Z,10.38
2017-12-22T23:10:30.361Z,10.77
2017-12-22T23:12:58.111Z,11.48
2017-12-22T23:15:25.794Z,18.92
2017-12-22T23:17:54.259Z,13.38
2017-12-22T23:20:22.005Z,11.43
2017-12-22T23:22:49.697Z,12.02
2017-12-22T23:25:18.141Z,9.05
2017-12-22T23:27:45.882Z,9.55
2017-12-22T23:30:13.566Z,9.90
2017-12-22T23:32:41.254Z,13.40
2017-12-22T23:35:09.771Z,20.65
2017-12-22T23:37:37.466Z,18.65
2017-12-22T23:40:05.158Z,17.35
2017-12-22T23:42:33.709Z,17.45
2017-12-22T23:45:01.398Z,23.85
2017-12-22T23:47:29.870Z,10.50
2017-12-22T23:49:58.379Z,15.05
2017-12-22T23:52:26.071Z,15.85
2017-12-22T23:54:53.781Z,13.55
2017-12-22T23:57:22.294Z,16.10
2017-12-22T23:59:49.989Z,23.65
